createdAt,value
2022-11-29T00:01:26.947Z,26.15
2022-11-29T00:03:55.747Z,28.90
2022-11-29T00:06:27.154Z,29.05
2022-11-29T00:08:56.037Z,42.40
2022-11-29T00:11:44.096Z,28.25
2022-11-29T00:14:14.293Z,27.35
2022-11-29T00:16:44.297Z,29.30
2022-11-29T00:19:14.310Z,27.45
2022-11-29T00:21:42.269Z,26.48
2022-11-29T00:24:10.428Z,27.63
2022-11-29T00:26:38.375Z,25.10
2022-11-29T00:29:06.580Z,24.67
2022-11-29T00:31:35.195Z,29.83
2022-11-29T00:34:06.895Z,26.13
2022-11-29T00:36:35.744Z,24.83
2022-11-29T00:39:04.809Z,29.05
2022-11-29T00:41:32.914Z,28.85
2022-11-29T00:44:01.348Z,29.02
2022-11-29T00:46:29.320Z,23.00
2022-11-29T00:48:57.287Z,24.40
2022-11-29T00:51:26.617Z,24.50
2022-11-29T00:53:54.630Z,19.77
2022-11-29T00:56:22.726Z,22.27
2022-11-29T00:58:50.691Z,21.70
2022-11-29T01:01:18.956Z,24.27
2022-11-29T01:03:46.876Z,23.13
2022-11-29T01:06:16.601Z,20.63
2022-11-29T01:08:46.541Z,21.23
2022-11-29T01:11:16.212Z,22.90
2022-11-29T01:13:44.581Z,17.42
2022-11-29T01:16:12.978Z,17.08
2022-11-29T01:18:41.001Z,16.98
2022-11-29T01:21:10.730Z,15.82
2022-11-29T01:23:39.527Z,21.70
2022-11-29T01:26:10.307Z,18.83
2022-11-29T01:28:39.375Z,18.00
2022-11-29T01:31:08.497Z,17.00
2022-11-29T01:33:36.985Z,17.67
2022-11-29T01:36:06.072Z,14.32
2022-11-29T01:38:34.693Z,13.57
2022-11-29T01:41:05.645Z,12.05
2022-11-29T01:43:35.757Z,16.85
2022-11-29T01:46:03.745Z,14.25
2022-11-29T01:48:34.443Z,12.93
2022-11-29T01:51:02.834Z,18.85
2022-11-29T01:53:30.841Z,12.52
2022-11-29T01:56:03.738Z,13.27
2022-11-29T01:58:32.391Z,13.15
2022-11-29T02:01:02.645Z,14.35
2022-11-29T02:03:30.722Z,10.93
2022-11-29T02:05:58.638Z,18.83
2022-11-29T02:08:32.707Z,12.80
2022-11-29T02:11:28.186Z,11.95
2022-11-29T02:14:07.307Z,14.43
2022-11-29T02:16:45.896Z,13.40
2022-11-29T02:19:35.160Z,10.95
2022-11-29T02:22:06.820Z,9.38
2022-11-29T02:24:58.441Z,11.18
2022-11-29T02:28:10.536Z,14.65
2022-11-29T02:31:10.548Z,12.07
2022-11-29T02:34:05.097Z,10.88
2022-11-29T02:36:53.752Z,16.10
2022-11-29T02:42:29.150Z,16.77
2022-11-29T02:45:20.349Z,12.13
2022-11-29T02:48:03.508Z,14.48
2022-11-29T02:50:48.374Z,10.35
2022-11-29T02:53:28.522Z,9.88
2022-11-29T02:56:06.494Z,11.90
2022-11-29T02:59:00.792Z,11.77
2022-11-29T03:01:36.217Z,9.90
2022-11-29T03:04:16.926Z,9.75
2022-11-29T03:07:05.610Z,10.90
2022-11-29T03:09:43.790Z,10.60
2022-11-29T03:15:02.124Z,8.27
2022-11-29T03:17:43.639Z,8.48
2022-11-29T03:20:31.309Z,9.35
2022-11-29T03:23:16.030Z,10.70
2022-11-29T03:25:50.210Z,7.00
2022-11-29T03:28:23.628Z,8.13
2022-11-29T03:31:10.018Z,9.10
2022-11-29T03:33:47.630Z,10.45
2022-11-29T03:36:27.995Z,6.00
2022-11-29T03:39:06.710Z,7.00
2022-11-29T03:41:45.027Z,5.85
2022-11-29T03:44:17.814Z,8.68
2022-11-29T03:46:55.994Z,9.65
2022-11-29T03:49:31.131Z,7.30
2022-11-29T03:52:16.723Z,8.98
2022-11-29T03:55:04.564Z,8.23
2022-11-29T03:57:48.487Z,6.43
2022-11-29T04:00:18.665Z,9.88
2022-11-29T04:03:16.375Z,10.80
2022-11-29T04:06:16.719Z,8.70
2022-11-29T04:09:13.263Z,11.45
2022-11-29T04:12:24.136Z,9.80
2022-11-29T04:15:38.071Z,11.57
2022-11-29T04:18:38.710Z,10.20
2022-11-29T04:22:24.000Z,17.27
2022-11-29T04:25:28.183Z,13.60
2022-11-29T04:28:48.001Z,12.13
2022-11-29T04:31:32.794Z,9.45
2022-11-29T04:35:09.135Z,11.18
2022-11-29T04:38:14.764Z,9.13
2022-11-29T04:41:14.209Z,8.70
2022-11-29T04:44:18.818Z,11.32
2022-11-29T04:47:11.853Z,9.88
2022-11-29T04:50:04.722Z,11.85
2022-11-29T04:53:14.781Z,7.97
2022-11-29T04:55:57.484Z,11.52
2022-11-29T04:58:31.605Z,10.35
2022-11-29T05:01:17.955Z,7.45
2022-11-29T05:03:57.365Z,8.75
2022-11-29T05:06:34.122Z,8.98
2022-11-29T05:09:16.734Z,8.90
2022-11-29T05:11:55.759Z,10.50
2022-11-29T05:14:35.617Z,9.15
2022-11-29T05:17:31.115Z,13.68
2022-11-29T05:20:20.294Z,9.60
2022-11-29T05:23:06.409Z,8.32
2022-11-29T05:25:46.162Z,7.97
2022-11-29T05:28:21.375Z,9.30
2022-11-29T05:31:14.141Z,19.73
2022-11-29T05:34:06.533Z,17.77
2022-11-29T05:36:40.024Z,9.90
2022-11-29T05:39:32.091Z,11.02
2022-11-29T05:42:16.369Z,12.23
2022-11-29T05:44:48.429Z,11.15
2022-11-29T05:47:24.670Z,13.70
2022-11-29T05:50:06.635Z,9.55
2022-11-29T05:52:48.422Z,8.80
2022-11-29T05:55:28.299Z,10.85
2022-11-29T05:58:00.169Z,9.80
2022-11-29T06:00:32.848Z,7.72
2022-11-29T06:03:10.473Z,11.95
2022-11-29T06:05:46.707Z,7.47
2022-11-29T06:08:19.351Z,10.13
2022-11-29T06:11:00.618Z,7.05
2022-11-29T06:13:43.647Z,9.10
2022-11-29T06:16:28.252Z,7.10
2022-11-29T06:19:31.163Z,6.57
2022-11-29T06:22:11.241Z,9.35
2022-11-29T06:24:56.328Z,7.78
2022-11-29T06:27:44.022Z,8.45
2022-11-29T06:30:14.907Z,7.78
2022-11-29T06:32:51.500Z,5.78
2022-11-29T06:35:36.755Z,8.88
2022-11-29T06:38:10.097Z,6.47
2022-11-29T06:40:38.540Z,4.65
2022-11-29T06:43:08.504Z,8.13
2022-11-29T06:45:36.877Z,8.02
2022-11-29T06:48:07.161Z,6.93
2022-11-29T06:50:46.752Z,10.32
2022-11-29T06:53:20.503Z,7.03
2022-11-29T06:55:57.619Z,14.45
2022-11-29T06:58:38.576Z,12.40
2022-11-29T07:01:15.037Z,6.47
2022-11-29T07:03:59.816Z,11.40
2022-11-29T07:06:29.897Z,5.80
2022-11-29T07:09:02.317Z,7.80
2022-11-29T07:11:30.948Z,8.80
2022-11-29T07:14:00.899Z,5.55
2022-11-29T07:16:32.945Z,8.45
2022-11-29T07:19:10.625Z,8.40
2022-11-29T07:21:54.028Z,11.00
2022-11-29T07:24:33.100Z,5.82
2022-11-29T07:27:09.224Z,6.90
2022-11-29T07:29:48.019Z,6.65
2022-11-29T07:32:23.640Z,7.88
2022-11-29T07:35:02.887Z,5.60
2022-11-29T07:37:37.868Z,5.97
2022-11-29T07:40:13.099Z,8.82
2022-11-29T07:42:51.307Z,5.80
2022-11-29T07:47:51.554Z,6.85
2022-11-29T07:50:20.035Z,7.65
2022-11-29T07:52:48.572Z,7.63
2022-11-29T07:55:19.413Z,4.95
2022-11-29T07:57:47.724Z,9.85
2022-11-29T08:00:16.230Z,5.28
2022-11-29T08:02:45.700Z,6.95
2022-11-29T08:05:13.631Z,5.70
2022-11-29T08:07:42.425Z,11.10
2022-11-29T08:10:13.618Z,7.65
2022-11-29T08:12:44.664Z,7.25
2022-11-29T08:15:13.087Z,7.53
2022-11-29T08:17:41.358Z,11.60
2022-11-29T08:20:12.436Z,12.43
2022-11-29T08:22:40.744Z,8.15
2022-11-29T08:25:09.459Z,9.40
2022-11-29T08:27:37.718Z,6.35
2022-11-29T08:30:06.520Z,9.73
2022-11-29T08:32:35.349Z,9.70
2022-11-29T08:35:03.258Z,5.93
2022-11-29T08:37:32.494Z,10.48
2022-11-29T08:40:00.431Z,12.45
2022-11-29T08:42:28.369Z,7.93
2022-11-29T08:44:56.275Z,9.18
2022-11-29T08:47:39.150Z,7.65
2022-11-29T08:50:12.102Z,7.45
2022-11-29T08:53:01.367Z,7.05
2022-11-29T08:55:33.476Z,13.77
2022-11-29T08:58:03.647Z,9.80
2022-11-29T09:00:32.554Z,10.02
2022-11-29T09:03:16.120Z,10.85
2022-11-29T09:05:44.524Z,6.78
2022-11-29T09:08:13.811Z,6.45
2022-11-29T09:10:42.752Z,6.45
2022-11-29T09:13:11.655Z,5.88
2022-11-29T09:15:39.770Z,11.20
2022-11-29T09:18:07.797Z,8.45
2022-11-29T09:20:36.034Z,7.03
2022-11-29T09:23:04.075Z,8.68
2022-11-29T09:25:33.305Z,7.10
2022-11-29T09:28:03.018Z,8.18
2022-11-29T09:30:31.593Z,5.75
2022-11-29T09:33:02.594Z,9.95
2022-11-29T09:35:30.812Z,7.85
2022-11-29T09:37:58.769Z,8.57
2022-11-29T09:40:32.982Z,9.93
2022-11-29T09:43:11.307Z,11.25
2022-11-29T09:45:43.365Z,8.75
2022-11-29T09:48:51.813Z,14.75
2022-11-29T09:51:28.918Z,8.55
2022-11-29T09:54:07.492Z,8.82
2022-11-29T09:56:42.310Z,9.25
2022-11-29T09:59:17.884Z,12.75
2022-11-29T10:01:51.105Z,10.07
2022-11-29T10:04:22.483Z,10.25
2022-11-29T10:06:57.413Z,8.70
2022-11-29T10:09:33.976Z,12.60
2022-11-29T10:12:11.709Z,13.20
2022-11-29T10:14:47.223Z,12.88
2022-11-29T10:17:26.783Z,11.90
2022-11-29T10:19:59.742Z,11.48
2022-11-29T10:22:37.515Z,12.63
2022-11-29T10:25:10.321Z,14.00
2022-11-29T10:27:41.297Z,9.40
2022-11-29T10:30:16.222Z,11.75
2022-11-29T10:32:46.413Z,10.60
2022-11-29T10:35:15.956Z,11.02
2022-11-29T10:38:01.503Z,10.48
2022-11-29T10:40:36.190Z,11.27
2022-11-29T10:43:04.841Z,11.48
2022-11-29T10:45:38.823Z,9.85
2022-11-29T10:48:11.600Z,15.30
2022-11-29T10:50:42.712Z,10.43
2022-11-29T10:53:12.759Z,16.65
2022-11-29T10:55:45.076Z,11.95
2022-11-29T10:58:16.221Z,12.45
2022-11-29T11:00:54.075Z,15.27
2022-11-29T11:03:35.419Z,13.30
2022-11-29T11:06:08.615Z,12.52
2022-11-29T11:08:38.349Z,15.27
2022-11-29T11:11:08.582Z,12.07
2022-11-29T11:13:37.872Z,15.85
2022-11-29T11:16:15.555Z,18.50
2022-11-29T11:18:44.354Z,12.98
2022-11-29T11:21:14.083Z,16.92
2022-11-29T11:23:51.821Z,19.77
2022-11-29T11:26:20.315Z,19.63
2022-11-29T11:28:52.430Z,19.17
2022-11-29T11:31:31.586Z,21.65
2022-11-29T11:34:26.145Z,18.50
2022-11-29T11:36:54.410Z,21.67
2022-11-29T11:39:24.020Z,20.98
2022-11-29T11:42:10.528Z,18.38
2022-11-29T11:44:49.251Z,20.92
2022-11-29T11:47:20.676Z,17.77
2022-11-29T11:49:50.731Z,15.90
2022-11-29T11:52:23.174Z,22.58
2022-11-29T11:54:55.209Z,11.70
2022-11-29T11:57:24.774Z,14.32
2022-11-29T11:59:54.391Z,12.63
2022-11-29T12:02:29.070Z,13.63
2022-11-29T12:05:00.665Z,14.93
2022-11-29T12:08:06.302Z,12.82
2022-11-29T12:10:25.488Z,12.23
2022-11-29T12:12:54.506Z,11.82
2022-11-29T12:15:26.783Z,12.25
2022-11-29T12:18:02.056Z,12.32
2022-11-29T12:20:34.447Z,12.27
2022-11-29T12:23:20.520Z,11.88
2022-11-29T12:25:53.373Z,10.05
2022-11-29T12:28:23.217Z,11.43
2022-11-29T12:30:58.253Z,10.93
2022-11-29T12:33:40.158Z,9.90
2022-11-29T12:36:26.013Z,12.27
2022-11-29T12:39:07.675Z,10.32
2022-11-29T12:41:49.499Z,16.40
2022-11-29T12:44:30.787Z,11.48
2022-11-29T12:50:05.881Z,9.98
2022-11-29T12:52:43.338Z,14.57
2022-11-29T12:55:20.935Z,12.57
2022-11-29T12:57:58.198Z,11.75
2022-11-29T13:00:30.146Z,10.93
2022-11-29T13:03:09.472Z,13.85
2022-11-29T13:05:53.192Z,13.70
2022-11-29T13:09:01.890Z,12.35
2022-11-29T13:11:32.354Z,16.08
2022-11-29T13:14:41.048Z,15.55
2022-11-29T13:17:01.868Z,16.40
2022-11-29T13:19:39.088Z,17.67
2022-11-29T13:22:16.244Z,16.90
2022-11-29T13:24:48.698Z,20.63
2022-11-29T13:27:21.063Z,16.67
2022-11-29T13:29:50.106Z,16.45
2022-11-29T13:32:31.178Z,17.23
2022-11-29T13:35:04.355Z,17.30
2022-11-29T13:37:39.791Z,17.45
2022-11-29T13:40:24.704Z,12.00
2022-11-29T13:43:01.318Z,12.20
2022-11-29T13:45:36.473Z,14.35
2022-11-29T13:48:27.847Z,15.00
2022-11-29T13:50:56.954Z,13.57
2022-11-29T13:53:32.418Z,14.68
2022-11-29T13:56:01.841Z,12.23
2022-11-29T13:58:37.230Z,11.32
2022-11-29T14:01:09.249Z,15.10
2022-11-29T14:03:41.731Z,14.50
2022-11-29T14:06:15.714Z,12.68
2022-11-29T14:09:26.105Z,11.85
2022-11-29T14:12:02.714Z,15.02
2022-11-29T14:14:35.457Z,12.50
2022-11-29T14:17:04.857Z,14.98
2022-11-29T14:19:35.145Z,14.35
2022-11-29T14:22:31.316Z,15.27
2022-11-29T14:25:21.742Z,16.75
2022-11-29T14:28:03.948Z,16.45
2022-11-29T14:30:50.848Z,12.13
2022-11-29T14:33:29.749Z,13.68
2022-11-29T14:36:17.984Z,14.75
2022-11-29T14:38:53.379Z,10.45
2022-11-29T14:41:29.755Z,13.20
2022-11-29T14:44:15.353Z,14.55
2022-11-29T14:46:43.758Z,13.60
2022-11-29T14:49:23.099Z,16.02
2022-11-29T14:52:17.600Z,15.10
2022-11-29T14:55:01.699Z,13.88
2022-11-29T14:58:05.941Z,15.35
2022-11-29T15:00:43.771Z,17.42
2022-11-29T15:03:14.288Z,13.88
2022-11-29T15:05:45.281Z,12.73
2022-11-29T15:08:18.833Z,13.23
2022-11-29T15:10:50.671Z,12.73
2022-11-29T15:13:27.028Z,13.18
2022-11-29T15:16:12.830Z,12.43
2022-11-29T15:19:03.090Z,13.90
2022-11-29T15:21:40.294Z,12.93
2022-11-29T15:24:12.839Z,15.13
2022-11-29T15:26:54.927Z,17.05
2022-11-29T15:29:24.932Z,15.82
2022-11-29T15:31:55.765Z,13.13
2022-11-29T15:34:32.291Z,14.45
2022-11-29T15:37:00.589Z,15.60
2022-11-29T15:39:31.359Z,13.57
2022-11-29T15:42:04.505Z,12.90
2022-11-29T15:44:33.854Z,20.90
2022-11-29T15:47:17.403Z,16.55
2022-11-29T15:49:45.371Z,16.20
2022-11-29T15:52:20.631Z,16.67
2022-11-29T15:54:53.466Z,15.70
2022-11-29T15:57:26.383Z,13.70
2022-11-29T15:59:58.089Z,15.10
2022-11-29T16:02:29.142Z,19.52
2022-11-29T16:05:00.727Z,13.73
2022-11-29T16:07:32.189Z,14.60
2022-11-29T16:10:04.771Z,14.15
2022-11-29T16:12:33.391Z,14.30
2022-11-29T16:15:03.511Z,16.65
2022-11-29T16:17:34.504Z,14.48
2022-11-29T16:20:23.283Z,16.05
2022-11-29T16:25:37.550Z,15.13
2022-11-29T16:28:06.928Z,16.00
2022-11-29T16:30:42.090Z,14.30
2022-11-29T16:33:21.263Z,16.20
2022-11-29T16:35:49.421Z,16.65
2022-11-29T16:38:23.188Z,16.88
2022-11-29T16:41:06.368Z,18.95
2022-11-29T16:43:48.606Z,17.67
2022-11-29T16:46:38.891Z,19.75
2022-11-29T16:49:32.411Z,17.58
2022-11-29T16:52:00.843Z,22.48
2022-11-29T16:54:32.247Z,22.27
2022-11-29T16:57:00.684Z,20.90
2022-11-29T16:59:28.971Z,25.42
2022-11-29T17:01:58.438Z,24.75
2022-11-29T17:04:27.518Z,25.30
2022-11-29T17:06:56.703Z,24.23
2022-11-29T17:09:27.056Z,23.98
2022-11-29T17:11:55.839Z,26.40
2022-11-29T17:14:24.099Z,25.88
2022-11-29T17:16:52.366Z,30.42
2022-11-29T17:19:23.609Z,31.88
2022-11-29T17:21:52.172Z,31.67
2022-11-29T17:24:21.887Z,29.77
2022-11-29T17:26:50.052Z,28.25
2022-11-29T17:29:18.999Z,29.13
2022-11-29T17:31:50.192Z,32.50
2022-11-29T17:34:18.256Z,27.40
2022-11-29T17:36:47.700Z,30.23
2022-11-29T17:39:19.369Z,31.80
2022-11-29T17:41:48.067Z,37.13
2022-11-29T17:44:16.092Z,35.97
2022-11-29T17:46:44.062Z,39.80
2022-11-29T17:49:12.015Z,41.47
2022-11-29T17:51:56.453Z,39.75
2022-11-29T17:54:26.051Z,42.35
2022-11-29T17:56:54.129Z,45.10
2022-11-29T17:59:22.027Z,45.15
2022-11-29T18:01:50.046Z,41.83
2022-11-29T18:04:18.232Z,44.10
2022-11-29T18:06:49.817Z,38.30
2022-11-29T18:09:19.775Z,37.97
2022-11-29T18:11:50.859Z,31.70
2022-11-29T18:14:22.307Z,30.13
2022-11-29T18:16:50.704Z,29.80
2022-11-29T18:19:20.870Z,31.30
2022-11-29T18:21:49.745Z,32.80
2022-11-29T18:24:18.447Z,30.98
2022-11-29T18:26:46.694Z,31.25
2022-11-29T18:29:16.206Z,26.67
2022-11-29T18:31:45.972Z,29.40
2022-11-29T18:34:15.141Z,31.95
2022-11-29T18:36:45.719Z,37.50
2022-11-29T18:39:15.709Z,35.28
2022-11-29T18:41:45.426Z,30.85
2022-11-29T18:44:16.466Z,30.48
2022-11-29T18:46:46.446Z,35.00
2022-11-29T18:49:15.902Z,32.70
2022-11-29T18:51:45.666Z,27.17
2022-11-29T18:54:15.409Z,27.88
2022-11-29T18:56:44.552Z,24.10
2022-11-29T18:59:14.653Z,28.00
2022-11-29T19:01:45.492Z,24.75
2022-11-29T19:04:16.416Z,26.70
2022-11-29T19:06:44.770Z,27.38
2022-11-29T19:09:15.559Z,27.50
2022-11-29T19:11:43.798Z,25.83
2022-11-29T19:14:13.874Z,23.73
2022-11-29T19:16:50.260Z,25.77
2022-11-29T19:19:27.330Z,22.60
2022-11-29T19:21:57.850Z,26.45
2022-11-29T19:24:29.000Z,28.52
2022-11-29T19:26:58.172Z,23.58
2022-11-29T19:29:26.950Z,24.05
2022-11-29T19:31:57.097Z,28.00
2022-11-29T19:34:25.985Z,24.60
2022-11-29T19:36:56.928Z,25.33
2022-11-29T19:39:26.150Z,26.85
2022-11-29T19:41:57.963Z,27.85
2022-11-29T19:44:30.207Z,24.40
2022-11-29T19:47:04.870Z,26.48
2022-11-29T19:49:43.502Z,26.05
2022-11-29T19:52:14.878Z,24.98
2022-11-29T19:54:43.737Z,26.08
2022-11-29T19:57:13.441Z,25.17
2022-11-29T19:59:47.470Z,25.65
2022-11-29T20:02:22.665Z,27.17
2022-11-29T20:04:54.660Z,24.80
2022-11-29T20:07:35.074Z,27.27
2022-11-29T20:10:10.049Z,29.20
2022-11-29T20:12:38.536Z,29.85
2022-11-29T20:15:10.164Z,36.90
2022-11-29T20:17:53.108Z,34.03
2022-11-29T20:20:31.061Z,35.75
2022-11-29T20:23:02.973Z,33.17
2022-11-29T20:25:38.156Z,34.22
2022-11-29T20:28:09.557Z,32.55
2022-11-29T20:30:42.066Z,35.53
2022-11-29T20:33:19.859Z,36.38
2022-11-29T20:35:52.016Z,32.00
2022-11-29T20:38:33.985Z,31.10
2022-11-29T20:41:13.923Z,33.40
2022-11-29T20:43:53.860Z,30.27
2022-11-29T20:46:26.519Z,28.50
2022-11-29T20:49:03.238Z,30.08
2022-11-29T20:51:43.511Z,27.10
2022-11-29T20:54:15.168Z,29.83
2022-11-29T20:56:49.934Z,23.73
2022-11-29T20:59:18.578Z,29.83
2022-11-29T21:01:48.906Z,28.58
2022-11-29T21:04:23.305Z,26.17
2022-11-29T21:07:02.863Z,28.15
2022-11-29T21:09:37.078Z,31.35
2022-11-29T21:12:06.785Z,29.58
2022-11-29T21:14:36.331Z,27.48
2022-11-29T21:17:06.173Z,36.00
2022-11-29T21:19:37.138Z,27.30
2022-11-29T21:22:14.023Z,33.10
2022-11-29T21:24:53.548Z,28.88
2022-11-29T21:27:31.871Z,29.45
2022-11-29T21:30:08.339Z,29.65
2022-11-29T21:32:45.634Z,30.50
2022-11-29T21:35:17.003Z,28.92
2022-11-29T21:37:49.335Z,28.02
2022-11-29T21:40:21.095Z,34.10
2022-11-29T21:42:53.183Z,31.02
2022-11-29T21:45:25.223Z,30.80
2022-11-29T21:48:00.689Z,36.03
2022-11-29T21:50:33.939Z,32.60
2022-11-29T21:53:05.415Z,37.83
2022-11-29T21:55:36.970Z,33.38
2022-11-29T21:58:10.771Z,35.92
2022-11-29T22:00:48.550Z,33.65
2022-11-29T22:03:17.971Z,36.28
2022-11-29T22:05:50.956Z,34.60
2022-11-29T22:08:22.545Z,37.47
2022-11-29T22:11:26.516Z,35.60
2022-11-29T22:14:15.274Z,36.97
2022-11-29T22:16:51.857Z,38.45
2022-11-29T22:19:23.097Z,33.63
2022-11-29T22:22:06.263Z,39.13
2022-11-29T22:24:59.077Z,34.20
2022-11-29T22:27:31.218Z,36.03
2022-11-29T22:30:04.437Z,34.58
2022-11-29T22:32:36.598Z,33.70
2022-11-29T22:39:00.360Z,27.77
2022-11-29T22:41:31.952Z,34.88
2022-11-29T22:44:02.880Z,31.58
2022-11-29T22:46:37.566Z,34.55
2022-11-29T22:49:09.472Z,38.70
2022-11-29T22:51:39.796Z,38.38
2022-11-29T22:54:15.563Z,34.53
2022-11-29T22:56:46.179Z,33.05
2022-11-29T22:59:14.977Z,37.55
2022-11-29T23:01:49.970Z,36.60
2022-11-29T23:04:22.063Z,34.67
2022-11-29T23:06:54.233Z,36.55
2022-11-29T23:09:34.801Z,32.92
2022-11-29T23:12:03.846Z,35.17
2022-11-29T23:14:40.160Z,41.03
2022-11-29T23:17:09.626Z,39.75
2022-11-29T23:19:38.336Z,32.15
2022-11-29T23:22:07.645Z,33.80
2022-11-29T23:25:03.240Z,35.58
2022-11-29T23:27:35.532Z,39.35
2022-11-29T23:30:28.872Z,34.08
2022-11-29T23:32:58.108Z,37.13
2022-11-29T23:35:37.671Z,36.63
2022-11-29T23:38:15.404Z,34.63
2022-11-29T23:40:54.509Z,39.13
2022-11-29T23:43:25.603Z,34.30
2022-11-29T23:45:54.321Z,36.42
2022-11-29T23:48:25.223Z,38.95
2022-11-29T23:50:57.593Z,37.03
2022-11-29T23:53:30.748Z,45.50
2022-11-29T23:56:03.770Z,47.88
2022-11-29T23:58:36.149Z,43.72
